createdAt,value
2018-08-22T00:01:22.670Z,98036.46
2018-08-22T00:03:54.635Z,98032.97
2018-08-22T00:06:26.796Z,98042.52
2018-08-22T00:08:58.730Z,98044.16
2018-08-22T00:11:30.355Z,98044.36
2018-08-22T00:14:02.217Z,98053.71
2018-08-22T00:16:33.970Z,98055.56
2018-08-22T00:19:05.786Z,98057.09
2018-08-22T00:21:37.317Z,98057.41
2018-08-22T00:24:09.271Z,98062.44
2018-08-22T00:28:05.620Z,98057.00
2018-08-22T00:30:37.547Z,98069.31
2018-08-22T00:33:09.135Z,98067.69
2018-08-22T00:35:41.176Z,98070.64
2018-08-22T00:38:12.954Z,98074.14
2018-08-22T00:40:44.584Z,98074.97
2018-08-22T00:43:16.479Z,98078.38
2018-08-22T00:45:49.273Z,98084.23
2018-08-22T00:48:20.999Z,98083.21
2018-08-22T00:50:52.859Z,98088.23
2018-08-22T00:53:24.743Z,98100.27
2018-08-22T00:55:56.611Z,98104.47
2018-08-22T00:58:28.475Z,98102.63
2018-08-22T01:01:00.084Z,98107.65
2018-08-22T01:03:31.910Z,98106.31
2018-08-22T01:06:04.067Z,98110.52
2018-08-22T01:08:35.895Z,98111.22
2018-08-22T01:11:08.098Z,98108.67
2018-08-22T01:13:39.998Z,98119.67
2018-08-22T01:16:12.039Z,98117.53
2018-08-22T01:18:43.958Z,98122.73
2018-08-22T01:21:15.657Z,98127.47
2018-08-22T01:23:47.577Z,98129.92
2018-08-22T01:26:19.459Z,98127.83
2018-08-22T01:28:51.212Z,98128.84
2018-08-22T01:31:23.004Z,98136.83
2018-08-22T01:33:54.636Z,98138.16
2018-08-22T01:36:26.949Z,98139.84
2018-08-22T01:38:58.628Z,98143.16
2018-08-22T01:41:30.779Z,98142.84
2018-08-22T01:44:02.507Z,98149.20
2018-08-22T01:46:34.519Z,98149.70
2018-08-22T01:49:06.223Z,98156.58
2018-08-22T01:51:37.946Z,98158.23
2018-08-22T01:54:09.539Z,98160.91
2018-08-22T01:56:41.542Z,98161.64
2018-08-22T01:59:13.020Z,98162.66
2018-08-22T02:01:44.935Z,98166.16
2018-08-22T02:04:16.865Z,98171.91
2018-08-22T02:06:51.311Z,98170.35
2018-08-22T02:09:23.175Z,98171.69
2018-08-22T02:11:56.641Z,98177.03
2018-08-22T02:14:29.374Z,98173.88
2018-08-22T02:17:01.501Z,98171.14
2018-08-22T02:19:33.537Z,98175.56
2018-08-22T02:22:06.075Z,98178.36
2018-08-22T02:24:37.922Z,98184.38
2018-08-22T02:27:09.916Z,98188.57
2018-08-22T02:29:42.136Z,98194.55
2018-08-22T02:32:14.452Z,98190.07
2018-08-22T02:34:46.658Z,98194.27
2018-08-22T02:37:19.174Z,98194.04
2018-08-22T02:39:51.654Z,98193.02
2018-08-22T02:42:23.584Z,98199.29
2018-08-22T02:44:55.624Z,98196.94
2018-08-22T02:47:27.506Z,98207.53
2018-08-22T02:49:59.683Z,98212.78
2018-08-22T02:52:31.695Z,98215.32
2018-08-22T02:55:03.418Z,98219.84
2018-08-22T02:57:35.302Z,98222.83
2018-08-22T03:00:07.079Z,98222.09
2018-08-22T03:02:39.026Z,98224.95
2018-08-22T03:05:10.739Z,98231.16
2018-08-22T03:07:42.638Z,98234.02
2018-08-22T03:10:14.140Z,98234.94
2018-08-22T03:12:46.181Z,98229.50
2018-08-22T03:15:17.676Z,98225.14
2018-08-22T03:17:50.594Z,98225.59
2018-08-22T03:20:22.072Z,98227.94
2018-08-22T03:22:53.776Z,98225.80
2018-08-22T03:25:25.935Z,98226.25
2018-08-22T03:27:57.888Z,98229.05
2018-08-22T03:30:29.932Z,98232.33
2018-08-22T03:33:01.885Z,98236.65
2018-08-22T03:35:33.851Z,98234.62
2018-08-22T03:38:05.980Z,98230.93
2018-08-22T03:40:37.598Z,98241.20
2018-08-22T03:43:09.697Z,98236.27
2018-08-22T03:45:41.521Z,98240.60
2018-08-22T03:48:13.380Z,98236.27
2018-08-22T03:50:45.159Z,98243.27
2018-08-22T03:53:17.537Z,98251.80
2018-08-22T03:55:49.262Z,98254.47
2018-08-22T03:58:21.336Z,98262.66
2018-08-22T04:00:53.242Z,98264.83
2018-08-22T04:03:24.947Z,98268.65
2018-08-22T04:05:56.791Z,98265.02
2018-08-22T04:08:28.659Z,98269.02
2018-08-22T04:11:00.319Z,98266.36
2018-08-22T04:13:32.196Z,98275.70
2018-08-22T04:16:04.134Z,98275.65
2018-08-22T04:18:35.888Z,98270.30
2018-08-22T04:21:07.666Z,98271.93
2018-08-22T04:23:39.565Z,98267.41
2018-08-22T04:26:11.800Z,98273.58
2018-08-22T04:28:43.955Z,98264.00
2018-08-22T04:31:16.509Z,98272.86
2018-08-22T04:33:48.603Z,98267.31
2018-08-22T04:36:22.444Z,98274.59
2018-08-22T04:38:55.069Z,98269.39
2018-08-22T04:41:26.829Z,98275.75
2018-08-22T04:43:59.311Z,98279.56
2018-08-22T04:46:31.467Z,98279.94
2018-08-22T04:49:03.591Z,98276.06
2018-08-22T04:51:35.781Z,98272.84
2018-08-22T04:54:07.713Z,98274.22
2018-08-22T04:56:39.969Z,98274.97
2018-08-22T04:59:11.946Z,98268.16
2018-08-22T05:01:43.633Z,98271.78
2018-08-22T05:04:16.715Z,98273.73
2018-08-22T05:06:48.884Z,98278.37
2018-08-22T05:09:23.270Z,98270.87
2018-08-22T05:11:57.570Z,98270.36
2018-08-22T05:14:29.950Z,98272.52
2018-08-22T05:17:01.674Z,98269.02
2018-08-22T05:19:33.440Z,98267.69
2018-08-22T05:22:05.108Z,98264.38
2018-08-22T05:24:37.203Z,98259.36
2018-08-22T05:27:08.812Z,98251.98
2018-08-22T05:29:40.898Z,98251.75
2018-08-22T05:32:12.584Z,98246.47
2018-08-22T05:34:49.090Z,98246.09
2018-08-22T05:37:20.863Z,98240.02
2018-08-22T05:39:52.687Z,98240.56
2018-08-22T05:49:25.376Z,98240.02
2018-08-22T05:51:56.897Z,98236.48
2018-08-22T05:54:28.544Z,98237.16
2018-08-22T05:57:01.022Z,98226.43
2018-08-22T05:59:33.005Z,98233.34
2018-08-22T06:02:04.609Z,98228.64
2018-08-22T06:04:36.311Z,98232.05
2018-08-22T06:07:08.513Z,98222.83
2018-08-22T06:09:41.434Z,98213.48
2018-08-22T06:12:13.186Z,98217.27
2018-08-22T06:14:45.315Z,98210.41
2018-08-22T06:17:17.845Z,98211.55
2018-08-22T06:19:50.139Z,98205.39
2018-08-22T06:22:22.151Z,98211.05
2018-08-22T06:24:54.289Z,98204.05
2018-08-22T06:27:25.881Z,98200.36
2018-08-22T06:29:57.286Z,98196.99
2018-08-22T06:32:29.309Z,98197.60
2018-08-22T06:35:01.505Z,98190.22
2018-08-22T06:37:32.812Z,98184.88
2018-08-22T06:40:04.998Z,98177.19
2018-08-22T06:42:36.288Z,98170.83
2018-08-22T06:45:08.714Z,98162.49
2018-08-22T06:47:40.353Z,98166.50
2018-08-22T06:50:12.413Z,98164.15
2018-08-22T06:52:44.026Z,98166.41
2018-08-22T06:55:15.575Z,98156.13
2018-08-22T06:57:46.922Z,98154.09
2018-08-22T07:00:18.459Z,98152.45
2018-08-22T07:02:49.936Z,98149.05
2018-08-22T07:05:21.565Z,98150.38
2018-08-22T07:07:52.915Z,98142.36
2018-08-22T07:10:24.558Z,98135.81
2018-08-22T07:12:56.000Z,98128.11
2018-08-22T07:15:27.586Z,98135.63
2018-08-22T07:17:59.054Z,98134.60
2018-08-22T07:20:30.518Z,98136.55
2018-08-22T07:23:02.107Z,98132.95
2018-08-22T07:25:33.597Z,98126.59
2018-08-22T07:28:05.142Z,98121.84
2018-08-22T07:30:36.778Z,98114.06
2018-08-22T07:33:08.275Z,98105.81
2018-08-22T07:35:40.116Z,98096.18
2018-08-22T07:38:11.730Z,98088.45
2018-08-22T07:40:43.194Z,98076.43
2018-08-22T07:43:14.632Z,98071.72
2018-08-22T07:45:45.964Z,98071.20
2018-08-22T07:48:17.512Z,98068.03
2018-08-22T07:50:50.381Z,98063.00
2018-08-22T07:53:21.870Z,98063.00
2018-08-22T07:55:53.672Z,98054.98
2018-08-22T07:58:25.151Z,98051.64
2018-08-22T08:00:56.836Z,98043.63
2018-08-22T08:03:28.506Z,98031.60
2018-08-22T08:05:59.733Z,98032.71
2018-08-22T08:08:31.676Z,98022.02
2018-08-22T08:11:03.426Z,98019.16
2018-08-22T08:13:34.821Z,98017.81
2018-08-22T08:16:06.448Z,98015.47
2018-08-22T08:18:38.087Z,98006.63
2018-08-22T08:21:09.782Z,98008.47
2018-08-22T08:23:41.589Z,98003.75
2018-08-22T08:26:13.350Z,98001.08
2018-08-22T08:28:45.109Z,97995.23
2018-08-22T08:31:16.806Z,97993.69
2018-08-22T08:33:48.496Z,97986.47
2018-08-22T08:36:20.317Z,97984.85
2018-08-22T08:38:51.761Z,97981.95
2018-08-22T08:41:23.585Z,97979.80
2018-08-22T08:43:55.076Z,97980.93
2018-08-22T08:46:26.525Z,97977.23
2018-08-22T08:48:57.921Z,97974.56
2018-08-22T08:51:29.933Z,97970.05
2018-08-22T08:54:01.500Z,97968.91
2018-08-22T08:56:33.178Z,97964.70
2018-08-22T08:59:04.879Z,97963.88
2018-08-22T09:01:36.669Z,97960.50
2018-08-22T09:04:08.043Z,97953.50
2018-08-22T09:06:39.888Z,97951.77
2018-08-22T09:09:12.077Z,97939.94
2018-08-22T09:11:50.454Z,97932.75
2018-08-22T09:14:22.313Z,97929.25
2018-08-22T09:16:53.825Z,97923.16
2018-08-22T09:19:25.407Z,97921.03
2018-08-22T09:21:56.795Z,97919.98
2018-08-22T09:24:28.114Z,97910.63
2018-08-22T09:26:59.724Z,97910.63
2018-08-22T09:29:31.231Z,97903.23
2018-08-22T09:32:03.094Z,97895.22
2018-08-22T09:34:34.488Z,97904.58
2018-08-22T09:37:06.209Z,97917.42
2018-08-22T09:39:37.643Z,97914.95
2018-08-22T09:42:09.092Z,97914.75
2018-08-22T09:44:40.738Z,97922.26
2018-08-22T09:47:12.164Z,97921.23
2018-08-22T09:49:43.697Z,97919.08
2018-08-22T09:52:16.311Z,97908.70
2018-08-22T09:54:57.495Z,97908.19
2018-08-22T09:57:29.968Z,97893.17
2018-08-22T10:00:01.681Z,97888.45
2018-08-22T10:02:33.039Z,97890.06
2018-08-22T10:05:04.707Z,97888.73
2018-08-22T10:07:36.407Z,97893.05
2018-08-22T10:10:08.013Z,97896.04
2018-08-22T10:12:39.485Z,97895.02
2018-08-22T10:15:11.147Z,97893.68
2018-08-22T10:17:42.556Z,97901.50
2018-08-22T10:20:14.240Z,97902.33
2018-08-22T10:22:45.887Z,97894.30
2018-08-22T10:25:17.377Z,97896.66
2018-08-22T10:27:49.014Z,97896.47
2018-08-22T10:30:20.432Z,97895.13
2018-08-22T10:32:52.446Z,97883.92
2018-08-22T10:35:23.959Z,97880.73
2018-08-22T10:37:55.593Z,97877.02
2018-08-22T10:40:27.222Z,97875.67
2018-08-22T10:42:58.776Z,97872.17
2018-08-22T10:45:30.355Z,97872.48
2018-08-22T10:48:01.874Z,97881.64
2018-08-22T10:50:33.528Z,97888.13
2018-08-22T10:53:05.272Z,97889.77
2018-08-22T10:55:36.844Z,97887.41
2018-08-22T10:58:08.459Z,97886.59
2018-08-22T11:00:39.727Z,97887.10
2018-08-22T11:03:11.333Z,97881.45
2018-08-22T11:05:43.039Z,97873.73
2018-08-22T11:08:14.691Z,97875.39
2018-08-22T11:10:46.385Z,97883.41
2018-08-22T11:13:18.401Z,97897.05
2018-08-22T11:15:50.119Z,97897.67
2018-08-22T11:18:22.186Z,97896.34
2018-08-22T11:20:51.974Z,97892.02
2018-08-22T11:23:34.530Z,97896.14
2018-08-22T11:26:15.814Z,97887.30
2018-08-22T11:28:56.823Z,97884.94
2018-08-22T11:31:37.799Z,97884.73
2018-08-22T11:34:19.255Z,97878.88
2018-08-22T11:37:13.123Z,97882.06
2018-08-22T11:39:47.544Z,97887.17
2018-08-22T11:42:19.041Z,97885.84
2018-08-22T11:44:50.679Z,97895.19
2018-08-22T11:47:22.315Z,97903.21
2018-08-22T11:49:53.797Z,97914.22
2018-08-22T11:52:25.370Z,97917.52
2018-08-22T11:54:57.078Z,97923.38
2018-08-22T11:57:28.456Z,97914.53
2018-08-22T11:59:59.934Z,97916.18
2018-08-22T12:02:31.617Z,97914.02
2018-08-22T12:05:03.441Z,97914.02
2018-08-22T12:07:35.122Z,97921.53
2018-08-22T12:10:06.940Z,97924.20
2018-08-22T12:12:38.870Z,97925.84
2018-08-22T12:15:10.692Z,97940.87
2018-08-22T12:17:42.437Z,97934.50
2018-08-22T12:20:14.192Z,97943.66
2018-08-22T12:22:46.233Z,97938.85
2018-08-22T12:25:19.152Z,97946.64
2018-08-22T12:27:50.589Z,97957.57
2018-08-22T12:30:22.204Z,97960.02
2018-08-22T12:32:53.792Z,97971.73
2018-08-22T12:35:25.580Z,97973.89
2018-08-22T12:37:56.813Z,97980.89
2018-08-22T12:40:28.521Z,97980.89
2018-08-22T12:43:00.124Z,97982.55
2018-08-22T12:45:31.784Z,97982.23
2018-08-22T12:48:03.687Z,97986.55
2018-08-22T12:50:35.107Z,97991.90
2018-08-22T12:53:06.784Z,97995.91
2018-08-22T12:55:38.446Z,97998.19
2018-08-22T12:58:10.007Z,97995.71
2018-08-22T13:00:41.517Z,97996.02
2018-08-22T13:03:13.184Z,97994.89
2018-08-22T13:05:45.186Z,97996.02
2018-08-22T13:08:16.491Z,97995.52
2018-08-22T13:10:48.188Z,98001.17
2018-08-22T13:13:19.713Z,98014.83
2018-08-22T13:15:51.413Z,98017.50
2018-08-22T13:18:23.133Z,98022.84
2018-08-22T13:20:54.743Z,98016.16
2018-08-22T13:23:26.162Z,98017.22
2018-08-22T13:25:57.895Z,98020.41
2018-08-22T13:28:29.450Z,98024.50
2018-08-22T13:31:01.260Z,98021.75
2018-08-22T13:33:32.620Z,98027.69
2018-08-22T13:36:03.944Z,98025.02
2018-08-22T13:38:35.539Z,98029.53
2018-08-22T13:41:07.338Z,98035.71
2018-08-22T13:43:39.084Z,98036.02
2018-08-22T13:46:10.702Z,98040.03
2018-08-22T13:48:42.152Z,98048.88
2018-08-22T13:51:13.802Z,98051.56
2018-08-22T13:53:45.421Z,98057.42
2018-08-22T13:56:16.934Z,98061.74
2018-08-22T13:58:48.490Z,98062.57
2018-08-22T14:01:20.290Z,98065.75
2018-08-22T14:03:52.042Z,98078.93
2018-08-22T14:06:23.719Z,98085.30
2018-08-22T14:08:55.324Z,98087.47
2018-08-22T14:11:27.084Z,98096.63
2018-08-22T14:13:58.644Z,98089.63
2018-08-22T14:16:30.295Z,98090.97
2018-08-22T14:19:01.807Z,98091.28
2018-08-22T14:21:32.968Z,98099.30
2018-08-22T14:24:04.446Z,98098.28
2018-08-22T14:26:35.939Z,98106.50
2018-08-22T14:29:07.661Z,98101.98
2018-08-22T14:31:39.411Z,98106.30
2018-08-22T14:34:11.505Z,98105.48
2018-08-22T14:36:43.134Z,98107.33
2018-08-22T14:39:14.843Z,98106.81
2018-08-22T14:41:46.486Z,98106.59
2018-08-22T14:44:17.750Z,98113.27
2018-08-22T14:46:49.385Z,98110.59
2018-08-22T14:49:21.037Z,98117.28
2018-08-22T14:51:52.448Z,98118.63
2018-08-22T14:54:24.201Z,98117.09
2018-08-22T14:56:55.763Z,98118.63
2018-08-22T14:59:27.702Z,98112.25
2018-08-22T15:01:59.369Z,98117.60
2018-08-22T15:04:31.037Z,98107.92
2018-08-22T15:07:03.300Z,98102.58
2018-08-22T15:09:34.786Z,98109.58
2018-08-22T15:12:06.610Z,98106.39
2018-08-22T15:14:38.341Z,98103.41
2018-08-22T15:17:10.410Z,98107.22
2018-08-22T15:19:41.845Z,98106.39
2018-08-22T15:22:13.600Z,98103.20
2018-08-22T15:24:47.023Z,98103.20
2018-08-22T15:27:20.599Z,98107.22
2018-08-22T15:29:52.361Z,98100.53
2018-08-22T15:32:24.569Z,98103.20
2018-08-22T15:34:57.442Z,98106.91
2018-08-22T15:37:29.207Z,98106.70
2018-08-22T15:40:00.680Z,98115.55
2018-08-22T15:42:32.585Z,98114.53
2018-08-22T15:45:04.444Z,98118.34
2018-08-22T15:47:36.040Z,98118.86
2018-08-22T15:50:07.774Z,98124.20
2018-08-22T15:52:39.760Z,98138.41
2018-08-22T15:55:18.556Z,98134.91
2018-08-22T15:58:02.263Z,98145.61
2018-08-22T16:00:52.511Z,98144.27
2018-08-22T16:03:25.343Z,98142.93
2018-08-22T16:05:57.461Z,98144.59
2018-08-22T16:08:29.845Z,98149.63
2018-08-22T16:11:05.873Z,98153.63
2018-08-22T16:13:38.349Z,98161.34
2018-08-22T16:16:09.798Z,98167.83
2018-08-22T16:18:41.592Z,98170.70
2018-08-22T16:21:13.089Z,98172.13
2018-08-22T16:23:44.699Z,98178.53
2018-08-22T16:26:16.358Z,98185.73
2018-08-22T16:28:55.176Z,98186.24
2018-08-22T16:31:35.090Z,98197.26
2018-08-22T16:34:06.751Z,98190.34
2018-08-22T16:36:39.909Z,98191.91
2018-08-22T16:39:11.819Z,98198.88
2018-08-22T16:41:43.527Z,98199.42
2018-08-22T16:44:15.489Z,98203.44
2018-08-22T16:46:47.053Z,98204.23
2018-08-22T16:49:19.043Z,98213.59
2018-08-22T16:51:51.114Z,98211.46
2018-08-22T16:54:22.558Z,98210.41
2018-08-22T16:56:54.051Z,98215.75
2018-08-22T16:59:25.715Z,98213.31
2018-08-22T17:01:57.387Z,98223.50
2018-08-22T17:04:29.220Z,98221.11
2018-08-22T17:07:05.430Z,98224.83
2018-08-22T17:09:37.287Z,98230.47
2018-08-22T17:12:08.845Z,98226.69
2018-08-22T17:14:40.494Z,98225.86
2018-08-22T17:17:12.011Z,98230.19
2018-08-22T17:19:44.033Z,98229.64
2018-08-22T17:22:15.636Z,98230.70
2018-08-22T17:24:47.971Z,98229.13
2018-08-22T17:27:19.612Z,98228.53
2018-08-22T17:29:50.885Z,98224.52
2018-08-22T17:32:22.538Z,98228.30
2018-08-22T17:34:54.257Z,98220.82
2018-08-22T17:37:25.746Z,98229.87
2018-08-22T17:39:57.349Z,98225.63
2018-08-22T17:42:29.100Z,98228.53
2018-08-22T17:45:00.632Z,98226.17
2018-08-22T17:47:32.249Z,98229.87
2018-08-22T17:50:10.936Z,98237.06
2018-08-22T17:52:42.359Z,98233.37
2018-08-22T17:55:14.113Z,98226.56
2018-08-22T17:57:45.603Z,98229.55
2018-08-22T18:00:17.345Z,98229.87
2018-08-22T18:02:49.778Z,98231.20
2018-08-22T18:05:21.458Z,98232.23
2018-08-22T18:07:52.906Z,98227.19
2018-08-22T18:10:24.581Z,98222.87
2018-08-22T18:12:56.837Z,98222.87
2018-08-22T18:15:28.243Z,98221.53
2018-08-22T18:17:59.948Z,98217.52
2018-08-22T18:20:31.930Z,98215.55
2018-08-22T18:23:03.031Z,98215.86
2018-08-22T18:25:34.864Z,98211.53
2018-08-22T18:28:07.671Z,98212.67
2018-08-22T18:30:39.952Z,98207.52
2018-08-22T18:33:11.357Z,98215.03
2018-08-22T18:35:45.771Z,98212.88
2018-08-22T18:38:17.496Z,98208.55
2018-08-22T18:41:20.514Z,98215.23
2018-08-22T18:43:52.042Z,98223.57
2018-08-22T18:46:24.082Z,98223.25
2018-08-22T18:48:55.749Z,98223.06
2018-08-22T18:51:28.068Z,98216.25
2018-08-22T18:53:59.941Z,98224.59
2018-08-22T18:56:31.589Z,98215.55
2018-08-22T18:59:11.592Z,98220.89
2018-08-22T19:01:43.290Z,98217.59
2018-08-22T19:04:15.029Z,98217.59
2018-08-22T19:06:46.855Z,98219.24
2018-08-22T19:09:18.540Z,98214.09
2018-08-22T19:11:50.747Z,98211.95
2018-08-22T19:14:31.579Z,98210.39
2018-08-22T19:17:03.324Z,98204.84
2018-08-22T19:19:39.830Z,98192.91
2018-08-22T19:22:11.574Z,98195.68
2018-08-22T19:24:48.418Z,98196.19
2018-08-22T19:27:20.741Z,98190.55
2018-08-22T19:29:52.419Z,98191.35
2018-08-22T19:32:23.862Z,98198.04
2018-08-22T19:34:58.153Z,98191.07
2018-08-22T19:37:30.260Z,98185.91
2018-08-22T19:40:06.952Z,98184.58
2018-08-22T19:42:40.805Z,98187.56
2018-08-22T19:45:12.597Z,98183.87
2018-08-22T19:47:43.979Z,98189.22
2018-08-22T19:50:15.471Z,98188.91
2018-08-22T19:52:47.182Z,98189.22
2018-08-22T19:55:18.791Z,98188.59
2018-08-22T19:57:50.479Z,98190.44
2018-08-22T20:00:21.682Z,98191.27
2018-08-22T20:02:53.391Z,98193.94
2018-08-22T20:05:24.949Z,98188.91
2018-08-22T20:07:56.678Z,98187.45
2018-08-22T20:10:29.037Z,98185.59
2018-08-22T20:13:00.742Z,98183.44
2018-08-22T20:15:32.172Z,98183.12
2018-08-22T20:18:03.937Z,98183.23
2018-08-22T20:20:35.520Z,98178.59
2018-08-22T20:23:06.758Z,98180.25
2018-08-22T20:25:38.874Z,98179.94
2018-08-22T20:28:10.541Z,98175.61
2018-08-22T20:30:42.022Z,98164.39
2018-08-22T20:33:13.601Z,98163.25
2018-08-22T20:35:45.954Z,98162.23
2018-08-22T20:38:17.742Z,98161.92
2018-08-22T20:40:51.465Z,98165.64
2018-08-22T20:43:27.595Z,98155.74
2018-08-22T20:45:59.276Z,98156.28
2018-08-22T20:48:30.915Z,98150.11
2018-08-22T20:51:02.569Z,98147.95
2018-08-22T20:53:33.760Z,98147.72
2018-08-22T20:56:05.295Z,98145.59
2018-08-22T20:58:36.884Z,98145.78
2018-08-22T21:01:08.577Z,98141.27
2018-08-22T21:10:42.224Z,98129.94
2018-08-22T21:13:30.607Z,98128.28
2018-08-22T21:16:02.073Z,98131.59
2018-08-22T21:18:33.814Z,98129.94
2018-08-22T21:21:10.804Z,98125.61
2018-08-22T21:23:43.226Z,98119.23
2018-08-22T21:26:21.965Z,98116.25
2018-08-22T21:28:53.606Z,98105.23
2018-08-22T21:31:25.145Z,98095.37
2018-08-22T21:33:57.145Z,98091.87
2018-08-22T21:36:28.906Z,98093.20
2018-08-22T21:39:00.432Z,98093.20
2018-08-22T21:41:31.883Z,98093.72
2018-08-22T21:44:03.364Z,98091.04
2018-08-22T21:46:34.843Z,98090.84
2018-08-22T21:49:11.161Z,98088.37
2018-08-22T21:51:43.531Z,98097.61
2018-08-22T21:54:15.112Z,98093.40
2018-08-22T21:56:47.422Z,98089.93
2018-08-22T21:59:19.090Z,98092.26
2018-08-22T22:01:55.330Z,98094.11
2018-08-22T22:04:31.262Z,98090.61
2018-08-22T22:07:03.272Z,98083.61
2018-08-22T22:09:35.286Z,98091.95
2018-08-22T22:12:11.233Z,98096.98
2018-08-22T22:14:44.423Z,98096.27
2018-08-22T22:17:16.635Z,98103.16
2018-08-22T22:19:48.698Z,98108.50
2018-08-22T22:22:20.609Z,98106.66
2018-08-22T22:24:56.380Z,98107.67
2018-08-22T22:27:28.989Z,98106.34
2018-08-22T22:30:05.346Z,98106.02
2018-08-22T22:32:38.203Z,98109.20
2018-08-22T22:35:09.675Z,98108.19
2018-08-22T22:37:41.155Z,98117.55
2018-08-22T22:40:12.795Z,98111.69
2018-08-22T22:42:44.459Z,98112.39
2018-08-22T22:45:16.715Z,98111.37
2018-08-22T22:47:48.117Z,98105.39
2018-08-22T22:50:19.629Z,98109.40
2018-08-22T22:52:51.286Z,98107.23
2018-08-22T22:55:22.795Z,98116.09
2018-08-22T22:57:54.459Z,98120.09
2018-08-22T23:00:26.406Z,98126.78
2018-08-22T23:03:02.569Z,98123.80
2018-08-22T23:05:33.855Z,98127.52
2018-08-22T23:08:05.553Z,98136.45
2018-08-22T23:10:37.137Z,98130.70
2018-08-22T23:13:08.741Z,98134.20
2018-08-22T23:15:39.913Z,98131.53
2018-08-22T23:18:11.576Z,98135.83
2018-08-22T23:20:43.987Z,98132.86
2018-08-22T23:23:31.320Z,98132.86
2018-08-22T23:26:08.950Z,98135.03
2018-08-22T23:28:41.041Z,98135.22
2018-08-22T23:31:12.886Z,98138.41
2018-08-22T23:33:44.784Z,98137.90
2018-08-22T23:36:16.538Z,98137.39
2018-08-22T23:38:48.367Z,98127.91
2018-08-22T23:41:20.226Z,98135.42
2018-08-22T23:43:53.252Z,98135.93
2018-08-22T23:46:24.782Z,98144.46
2018-08-22T23:48:58.645Z,98142.49
2018-08-22T23:51:30.278Z,98146.31
2018-08-22T23:54:02.526Z,98146.31
2018-08-22T23:56:34.253Z,98149.69
2018-08-22T23:59:06.654Z,98151.34
